createdAt,value
2024-05-09T00:00:54.321Z,18.09
2024-05-09T00:03:21.325Z,17.76
2024-05-09T00:05:48.817Z,17.99
2024-05-09T00:08:18.843Z,18.01
2024-05-09T00:10:50.247Z,18.10
2024-05-09T00:13:17.101Z,17.94
2024-05-09T00:15:44.620Z,17.34
2024-05-09T00:18:12.250Z,17.97
2024-05-09T00:20:43.645Z,18.12
2024-05-09T00:23:12.514Z,18.00
2024-05-09T00:25:44.947Z,18.02
2024-05-09T00:28:12.964Z,17.96
2024-05-09T00:30:41.151Z,17.43
2024-05-09T00:33:10.317Z,17.84
2024-05-09T00:35:38.807Z,17.96
2024-05-09T00:38:06.137Z,17.87
2024-05-09T00:40:39.746Z,17.85
2024-05-09T00:43:16.248Z,17.64
2024-05-09T00:45:44.106Z,17.82
2024-05-09T00:48:14.959Z,17.93
2024-05-09T00:50:46.214Z,17.82
2024-05-09T00:53:17.999Z,17.88
2024-05-09T00:55:46.394Z,17.73
2024-05-09T00:58:17.342Z,17.94
2024-05-09T01:00:54.425Z,17.88
2024-05-09T01:03:22.202Z,17.92
2024-05-09T01:05:51.679Z,17.70
2024-05-09T01:08:19.226Z,17.73
2024-05-09T01:10:48.432Z,17.21
2024-05-09T01:13:15.659Z,17.70
2024-05-09T01:15:43.388Z,17.70
2024-05-09T01:18:12.649Z,17.47
2024-05-09T01:20:43.419Z,17.65
2024-05-09T01:23:14.532Z,17.65
2024-05-09T01:25:43.248Z,17.02
2024-05-09T01:28:15.322Z,17.49
2024-05-09T01:30:43.969Z,17.56
2024-05-09T01:33:12.197Z,17.34
2024-05-09T01:35:42.261Z,17.68
2024-05-09T01:38:14.119Z,17.58
2024-05-09T01:40:42.091Z,17.58
2024-05-09T01:43:11.090Z,17.60
2024-05-09T01:45:39.655Z,17.59
2024-05-09T01:48:08.156Z,17.51
2024-05-09T01:50:39.636Z,17.10
2024-05-09T01:53:11.214Z,17.37
2024-05-09T01:55:38.456Z,16.80
2024-05-09T01:58:05.439Z,17.27
2024-05-09T02:00:39.206Z,17.35
2024-05-09T02:03:11.537Z,17.36
2024-05-09T02:05:41.402Z,17.05
2024-05-09T02:08:15.414Z,17.17
2024-05-09T02:10:44.483Z,17.21
2024-05-09T02:13:11.609Z,17.20
2024-05-09T02:15:38.591Z,17.25
2024-05-09T02:18:06.416Z,17.06
2024-05-09T02:20:36.468Z,16.75
2024-05-09T02:23:06.560Z,17.11
2024-05-09T02:25:34.086Z,17.23
2024-05-09T02:28:01.403Z,17.13
2024-05-09T02:32:59.812Z,17.10
2024-05-09T02:35:31.156Z,16.93
2024-05-09T02:37:58.584Z,17.14
2024-05-09T02:40:35.106Z,17.06
2024-05-09T02:43:04.540Z,16.97
2024-05-09T02:45:31.323Z,16.71
2024-05-09T02:47:58.533Z,16.72
2024-05-09T02:50:33.769Z,16.99
2024-05-09T02:53:07.881Z,16.95
2024-05-09T02:55:35.251Z,16.26
2024-05-09T02:58:02.974Z,16.47
2024-05-09T03:00:38.926Z,16.96
2024-05-09T03:03:14.218Z,16.76
2024-05-09T03:05:46.935Z,16.86
2024-05-09T03:08:14.833Z,16.79
2024-05-09T03:10:41.977Z,16.80
2024-05-09T03:13:14.545Z,16.76
2024-05-09T03:15:45.002Z,16.87
2024-05-09T03:18:13.331Z,16.90
2024-05-09T03:20:40.800Z,16.91
2024-05-09T03:23:09.799Z,16.74
2024-05-09T03:25:37.736Z,17.00
2024-05-09T03:28:04.976Z,17.00
2024-05-09T03:30:40.477Z,17.07
2024-05-09T03:33:20.282Z,17.12
2024-05-09T03:35:49.464Z,17.18
2024-05-09T03:38:16.918Z,17.18
2024-05-09T03:40:50.015Z,17.22
2024-05-09T03:43:19.791Z,17.12
2024-05-09T03:45:50.262Z,16.91
2024-05-09T03:48:17.523Z,17.14
2024-05-09T03:50:54.468Z,17.30
2024-05-09T03:53:23.039Z,17.38
2024-05-09T03:55:52.890Z,17.10
2024-05-09T03:58:19.848Z,17.15
2024-05-09T04:00:46.835Z,17.20
2024-05-09T04:03:14.121Z,17.25
2024-05-09T04:05:42.860Z,16.68
2024-05-09T04:08:11.913Z,17.17
2024-05-09T04:10:40.691Z,17.18
2024-05-09T04:13:07.493Z,17.29
2024-05-09T04:15:34.212Z,17.17
2024-05-09T04:18:02.973Z,16.96
2024-05-09T04:20:37.674Z,17.16
2024-05-09T04:23:09.522Z,17.20
2024-05-09T04:25:36.592Z,17.16
2024-05-09T04:28:03.847Z,17.24
2024-05-09T04:30:37.447Z,17.23
2024-05-09T04:33:12.261Z,17.25
2024-05-09T04:35:44.590Z,17.16
2024-05-09T04:38:13.805Z,17.03
2024-05-09T04:40:42.746Z,17.20
2024-05-09T04:43:25.702Z,17.13
2024-05-09T04:45:54.258Z,17.22
2024-05-09T04:48:21.889Z,17.11
2024-05-09T04:50:54.962Z,17.34
2024-05-09T04:53:23.523Z,17.19
2024-05-09T04:55:51.025Z,17.20
2024-05-09T04:58:19.811Z,17.25
2024-05-09T05:00:55.071Z,16.98
2024-05-09T05:03:22.650Z,17.13
2024-05-09T05:05:50.381Z,17.24
2024-05-09T05:08:20.604Z,16.96
2024-05-09T05:10:48.923Z,17.18
2024-05-09T05:13:25.718Z,17.20
2024-05-09T05:15:56.926Z,16.64
2024-05-09T05:18:26.435Z,17.23
2024-05-09T05:20:55.906Z,17.11
2024-05-09T05:23:23.769Z,16.82
2024-05-09T05:25:53.712Z,16.96
2024-05-09T05:28:21.817Z,16.85
2024-05-09T05:30:50.086Z,16.95
2024-05-09T05:33:23.866Z,16.87
2024-05-09T05:35:53.801Z,16.87
2024-05-09T05:38:23.854Z,17.18
2024-05-09T05:40:53.200Z,17.21
2024-05-09T05:43:20.732Z,16.94
2024-05-09T05:45:47.695Z,17.32
2024-05-09T05:48:35.790Z,17.10
2024-05-09T05:51:05.908Z,17.30
2024-05-09T05:53:34.559Z,17.38
2024-05-09T05:56:05.308Z,17.41
2024-05-09T05:58:32.166Z,17.32
2024-05-09T06:00:58.957Z,17.24
2024-05-09T06:03:27.569Z,17.52
2024-05-09T06:05:58.965Z,17.17
2024-05-09T06:08:28.878Z,17.13
2024-05-09T06:11:00.806Z,17.56
2024-05-09T06:13:27.654Z,17.55
2024-05-09T06:15:54.907Z,17.48
2024-05-09T06:18:22.432Z,17.70
2024-05-09T06:20:49.304Z,17.72
2024-05-09T06:23:17.398Z,17.82
2024-05-09T06:25:44.779Z,17.88
2024-05-09T06:28:12.002Z,17.42
2024-05-09T06:30:42.548Z,17.81
2024-05-09T06:33:13.568Z,17.93
2024-05-09T06:35:43.496Z,17.98
2024-05-09T06:38:10.795Z,17.92
2024-05-09T06:40:43.519Z,18.08
2024-05-09T06:43:19.030Z,17.94
2024-05-09T06:45:54.602Z,17.89
2024-05-09T06:48:22.516Z,17.91
2024-05-09T06:50:50.355Z,17.87
2024-05-09T06:53:20.601Z,18.09
2024-05-09T06:55:48.004Z,17.75
2024-05-09T06:58:15.773Z,18.09
2024-05-09T07:00:46.945Z,18.02
2024-05-09T07:03:20.559Z,18.04
2024-05-09T07:05:51.025Z,18.05
2024-05-09T07:08:19.081Z,17.32
2024-05-09T07:10:48.257Z,18.07
2024-05-09T07:13:15.952Z,17.85
2024-05-09T07:15:46.535Z,17.96
2024-05-09T07:18:21.582Z,17.89
2024-05-09T07:20:49.702Z,18.10
2024-05-09T07:23:17.726Z,18.28
2024-05-09T07:25:47.820Z,18.27
2024-05-09T07:28:16.489Z,18.23
2024-05-09T07:30:47.026Z,18.02
2024-05-09T07:33:24.694Z,18.22
2024-05-09T07:35:52.454Z,18.18
2024-05-09T07:38:19.933Z,18.44
2024-05-09T07:40:50.052Z,18.46
2024-05-09T07:43:17.106Z,18.43
2024-05-09T07:45:52.362Z,18.43
2024-05-09T07:50:00.452Z,18.58
2024-05-09T07:53:52.128Z,18.43
2024-05-09T07:56:26.629Z,18.78
2024-05-09T07:58:54.644Z,18.65
2024-05-09T08:01:24.740Z,18.76
2024-05-09T08:03:52.327Z,18.60
2024-05-09T08:06:22.643Z,18.80
2024-05-09T08:08:50.242Z,18.63
2024-05-09T08:11:17.915Z,18.46
2024-05-09T08:13:45.314Z,18.82
2024-05-09T08:16:15.265Z,18.66
2024-05-09T08:18:43.328Z,18.96
2024-05-09T08:21:11.504Z,18.95
2024-05-09T08:23:39.509Z,18.99
2024-05-09T08:26:08.905Z,19.08
2024-05-09T08:28:36.313Z,18.82
2024-05-09T08:31:08.581Z,19.11
2024-05-09T08:33:36.471Z,19.14
2024-05-09T08:36:03.858Z,19.14
2024-05-09T08:38:33.675Z,18.92
2024-05-09T08:41:03.787Z,19.09
2024-05-09T08:43:33.890Z,19.24
2024-05-09T08:46:02.856Z,19.23
2024-05-09T08:51:28.322Z,19.32
2024-05-09T08:53:59.736Z,19.36
2024-05-09T08:56:28.830Z,19.52
2024-05-09T08:59:00.131Z,19.55
2024-05-09T09:01:30.953Z,19.21
2024-05-09T09:04:07.896Z,19.60
2024-05-09T09:06:35.898Z,19.36
2024-05-09T09:09:04.010Z,19.49
2024-05-09T09:11:31.367Z,19.72
2024-05-09T09:13:59.746Z,19.78
2024-05-09T09:16:36.202Z,19.88
2024-05-09T09:19:04.762Z,19.81
2024-05-09T09:21:31.744Z,19.89
2024-05-09T09:23:58.688Z,19.90
2024-05-09T09:26:25.741Z,19.89
2024-05-09T09:28:59.633Z,20.04
2024-05-09T09:31:26.584Z,19.54
2024-05-09T09:33:55.603Z,20.08
2024-05-09T09:36:24.761Z,20.08
2024-05-09T09:38:52.084Z,20.53
2024-05-09T09:41:25.829Z,20.48
2024-05-09T09:43:54.689Z,20.57
2024-05-09T09:46:22.542Z,20.66
2024-05-09T09:48:49.962Z,20.50
2024-05-09T09:51:17.047Z,20.13
2024-05-09T09:53:44.663Z,20.57
2024-05-09T09:56:15.769Z,20.63
2024-05-09T09:58:47.193Z,20.55
2024-05-09T10:01:14.382Z,21.05
2024-05-09T10:03:42.376Z,21.06
2024-05-09T10:06:16.140Z,20.80
2024-05-09T10:08:43.563Z,21.18
2024-05-09T10:11:10.950Z,21.29
2024-05-09T10:13:44.687Z,21.29
2024-05-09T10:16:12.427Z,21.30
2024-05-09T10:18:43.522Z,21.22
2024-05-09T10:21:17.593Z,21.23
2024-05-09T10:24:00.105Z,21.16
2024-05-09T10:26:56.105Z,21.20
2024-05-09T10:29:24.570Z,21.17
2024-05-09T10:31:54.330Z,21.52
2024-05-09T10:34:24.962Z,21.29
2024-05-09T10:36:55.879Z,21.69
2024-05-09T10:39:25.682Z,21.51
2024-05-09T10:41:52.702Z,21.55
2024-05-09T10:44:22.624Z,21.59
2024-05-09T10:46:50.869Z,21.44
2024-05-09T10:49:18.730Z,21.42
2024-05-09T10:51:49.422Z,21.42
2024-05-09T10:54:19.811Z,21.30
2024-05-09T10:56:47.510Z,21.36
2024-05-09T10:59:15.319Z,21.37
2024-05-09T11:01:42.446Z,21.40
2024-05-09T11:04:09.853Z,21.50
2024-05-09T11:06:38.904Z,21.50
2024-05-09T11:09:07.002Z,21.66
2024-05-09T11:11:34.299Z,21.83
2024-05-09T11:14:13.083Z,21.81
2024-05-09T11:16:40.478Z,21.85
2024-05-09T11:19:13.118Z,21.57
2024-05-09T11:21:43.535Z,21.45
2024-05-09T11:24:11.313Z,21.50
2024-05-09T11:26:38.758Z,21.49
2024-05-09T11:29:05.749Z,21.71
2024-05-09T11:31:33.205Z,21.84
2024-05-09T11:34:00.784Z,21.91
2024-05-09T11:36:29.148Z,21.80
2024-05-09T11:38:58.204Z,22.05
2024-05-09T11:41:30.614Z,22.15
2024-05-09T11:43:58.340Z,22.00
2024-05-09T11:46:26.077Z,21.70
2024-05-09T11:48:55.098Z,21.97
2024-05-09T11:51:22.141Z,22.05
2024-05-09T11:53:49.197Z,21.42
2024-05-09T11:56:17.577Z,22.44
2024-05-09T11:58:44.413Z,22.22
2024-05-09T12:01:13.927Z,22.62
2024-05-09T12:03:40.997Z,23.20
2024-05-09T12:06:08.360Z,23.43
2024-05-09T12:08:36.145Z,23.81
2024-05-09T12:11:05.076Z,24.01
2024-05-09T12:13:34.742Z,24.49
2024-05-09T12:16:07.823Z,24.78
2024-05-09T12:18:35.325Z,25.02
2024-05-09T12:21:04.839Z,25.30
2024-05-09T12:23:32.329Z,25.18
2024-05-09T12:25:59.899Z,26.09
2024-05-09T12:28:31.498Z,26.22
2024-05-09T12:30:59.954Z,26.56
2024-05-09T12:33:28.139Z,26.89
2024-05-09T12:35:56.367Z,27.08
2024-05-09T12:38:23.721Z,27.23
2024-05-09T12:40:50.799Z,27.32
2024-05-09T12:43:17.930Z,27.35
2024-05-09T12:45:45.150Z,27.06
2024-05-09T12:48:14.348Z,27.13
2024-05-09T12:50:42.344Z,27.32
2024-05-09T12:53:14.212Z,27.32
2024-05-09T12:55:48.429Z,27.61
2024-05-09T12:58:24.763Z,27.50
2024-05-09T13:00:53.642Z,27.98
2024-05-09T13:03:22.274Z,27.69
2024-05-09T13:05:52.668Z,28.20
2024-05-09T13:08:20.836Z,28.10
2024-05-09T13:10:48.800Z,28.22
2024-05-09T13:13:16.913Z,28.52
2024-05-09T13:15:48.235Z,28.29
2024-05-09T13:18:17.982Z,28.16
2024-05-09T13:20:45.253Z,27.87
2024-05-09T13:23:12.939Z,27.85
2024-05-09T13:25:41.766Z,27.88
2024-05-09T13:28:10.875Z,27.90
2024-05-09T13:30:40.888Z,27.07
2024-05-09T13:33:11.994Z,27.29
2024-05-09T13:35:49.474Z,26.97
2024-05-09T13:38:25.206Z,27.08
2024-05-09T13:40:58.291Z,26.43
2024-05-09T13:43:29.160Z,26.50
2024-05-09T13:45:57.641Z,25.75
2024-05-09T13:48:24.869Z,26.20
2024-05-09T13:50:52.404Z,26.05
2024-05-09T13:53:20.363Z,25.97
2024-05-09T13:55:49.771Z,25.49
2024-05-09T13:58:17.963Z,25.42
2024-05-09T14:00:49.514Z,25.56
2024-05-09T14:03:20.289Z,25.43
2024-05-09T14:05:48.756Z,25.53
2024-05-09T14:08:18.824Z,25.28
2024-05-09T14:10:48.601Z,25.28
2024-05-09T14:13:16.313Z,25.08
2024-05-09T14:15:47.190Z,25.24
2024-05-09T14:18:14.787Z,25.09
2024-05-09T14:20:44.285Z,24.86
2024-05-09T14:23:11.967Z,24.87
2024-05-09T14:25:42.525Z,24.47
2024-05-09T14:28:12.540Z,24.95
2024-05-09T14:30:40.521Z,25.00
2024-05-09T14:33:11.723Z,24.86
2024-05-09T14:35:39.314Z,24.92
2024-05-09T14:38:08.773Z,24.61
2024-05-09T14:40:42.380Z,24.69
2024-05-09T14:43:15.146Z,24.18
2024-05-09T14:45:47.035Z,24.45
2024-05-09T14:48:15.413Z,24.49
2024-05-09T14:50:42.849Z,24.40
2024-05-09T14:53:14.137Z,24.03
2024-05-09T14:55:43.553Z,24.58
2024-05-09T14:58:12.994Z,24.55
2024-05-09T15:00:48.527Z,24.44
2024-05-09T15:03:22.250Z,24.53
2024-05-09T15:05:50.315Z,24.35
2024-05-09T15:08:19.759Z,24.16
2024-05-09T15:10:47.349Z,24.35
2024-05-09T15:13:17.109Z,24.34
2024-05-09T15:15:44.675Z,24.24
2024-05-09T15:18:16.656Z,24.30
2024-05-09T15:20:45.256Z,24.29
2024-05-09T15:23:13.859Z,24.40
2024-05-09T15:25:41.949Z,24.39
2024-05-09T15:28:12.026Z,24.30
2024-05-09T15:30:40.652Z,24.47
2024-05-09T15:33:09.168Z,23.90
2024-05-09T15:35:41.387Z,24.34
2024-05-09T15:38:09.795Z,23.99
2024-05-09T15:40:40.053Z,24.26
2024-05-09T15:43:10.535Z,24.25
2024-05-09T15:45:41.127Z,24.08
2024-05-09T15:48:09.171Z,23.85
2024-05-09T15:50:41.414Z,23.74
2024-05-09T15:53:11.834Z,23.63
2024-05-09T15:55:39.435Z,23.38
2024-05-09T15:58:08.462Z,23.38
2024-05-09T16:00:39.957Z,23.06
2024-05-09T16:03:16.328Z,23.84
2024-05-09T16:05:48.279Z,23.84
2024-05-09T16:08:19.071Z,23.80
2024-05-09T16:10:48.847Z,23.68
2024-05-09T16:13:18.712Z,23.80
2024-05-09T16:15:46.393Z,23.23
2024-05-09T16:18:14.933Z,23.99
2024-05-09T16:20:44.819Z,23.25
2024-05-09T16:23:13.532Z,23.48
2024-05-09T16:25:46.464Z,23.61
2024-05-09T16:30:41.500Z,22.95
2024-05-09T16:33:11.166Z,23.55
2024-05-09T16:35:41.008Z,23.52
2024-05-09T16:38:08.395Z,23.03
2024-05-09T16:40:40.241Z,23.04
2024-05-09T16:43:10.022Z,22.74
2024-05-09T16:45:38.084Z,22.95
2024-05-09T16:48:06.151Z,23.53
2024-05-09T16:50:37.701Z,22.87
2024-05-09T16:53:07.305Z,22.55
2024-05-09T16:55:36.268Z,22.70
2024-05-09T16:58:04.156Z,23.31
2024-05-09T17:03:07.542Z,23.46
2024-05-09T17:05:35.576Z,23.41
2024-05-09T17:08:03.168Z,23.28
2024-05-09T17:10:34.076Z,23.36
2024-05-09T17:13:07.157Z,23.30
2024-05-09T17:15:36.194Z,23.16
2024-05-09T17:18:04.412Z,23.10
2024-05-09T17:20:34.762Z,22.97
2024-05-09T17:23:05.829Z,22.98
2024-05-09T17:25:35.786Z,22.97
2024-05-09T17:28:08.547Z,23.01
2024-05-09T17:30:39.023Z,22.78
2024-05-09T17:33:10.390Z,22.81
2024-05-09T17:35:38.855Z,22.87
2024-05-09T17:38:07.342Z,22.81
2024-05-09T17:40:37.379Z,22.76
2024-05-09T17:43:06.785Z,22.78
2024-05-09T17:45:41.493Z,22.76
2024-05-09T17:48:11.658Z,22.73
2024-05-09T17:50:40.200Z,22.65
2024-05-09T17:53:08.930Z,22.60
2024-05-09T17:55:36.951Z,22.57
2024-05-09T17:58:05.234Z,22.56
2024-05-09T18:00:38.768Z,22.56
2024-05-09T18:03:14.754Z,22.59
2024-05-09T18:05:44.118Z,22.52
2024-05-09T18:08:13.360Z,22.53
2024-05-09T18:10:41.491Z,22.46
2024-05-09T18:13:09.734Z,22.44
2024-05-09T18:15:44.558Z,22.42
2024-05-09T18:18:12.467Z,22.37
2024-05-09T18:20:46.175Z,22.35
2024-05-09T18:23:16.154Z,22.27
2024-05-09T18:25:45.116Z,22.16
2024-05-09T18:28:13.531Z,22.02
2024-05-09T18:30:41.665Z,21.92
2024-05-09T18:33:11.697Z,21.97
2024-05-09T18:35:41.901Z,21.90
2024-05-09T18:38:09.913Z,21.73
2024-05-09T18:40:44.747Z,21.69
2024-05-09T18:43:14.344Z,21.66
2024-05-09T18:45:41.354Z,21.67
2024-05-09T18:48:14.492Z,21.61
2024-05-09T18:50:41.919Z,21.66
2024-05-09T18:53:18.090Z,21.63
2024-05-09T18:55:48.620Z,21.50
2024-05-09T18:58:17.840Z,21.49
2024-05-09T19:00:49.296Z,21.43
2024-05-09T19:03:19.286Z,21.42
2024-05-09T19:05:47.820Z,21.37
2024-05-09T19:08:16.583Z,21.33
2024-05-09T19:10:47.241Z,21.30
2024-05-09T19:13:17.006Z,21.28
2024-05-09T19:15:44.692Z,21.27
2024-05-09T19:18:16.184Z,21.17
2024-05-09T19:20:44.304Z,21.16
2024-05-09T19:23:12.320Z,21.09
2024-05-09T19:25:40.308Z,21.03
2024-05-09T19:28:07.797Z,20.94
2024-05-09T19:30:40.231Z,20.87
2024-05-09T19:33:12.735Z,20.92
2024-05-09T19:35:44.223Z,20.89
2024-05-09T19:38:12.599Z,20.90
2024-05-09T19:40:40.500Z,20.86
2024-05-09T19:43:08.134Z,20.73
2024-05-09T19:45:36.349Z,20.68
2024-05-09T19:48:06.244Z,20.58
2024-05-09T19:50:41.382Z,20.47
2024-05-09T19:53:12.554Z,20.46
2024-05-09T19:55:45.932Z,20.38
2024-05-09T19:58:14.959Z,20.34
2024-05-09T20:00:44.015Z,20.43
2024-05-09T20:03:13.430Z,20.40
2024-05-09T20:05:43.241Z,20.20
2024-05-09T20:08:10.891Z,20.27
2024-05-09T20:10:39.492Z,20.32
2024-05-09T20:13:09.313Z,20.24
2024-05-09T20:15:38.059Z,20.15
2024-05-09T20:18:07.296Z,20.11
2024-05-09T20:20:40.255Z,19.64
2024-05-09T20:23:13.389Z,19.89
2024-05-09T20:25:41.564Z,19.88
2024-05-09T20:28:12.898Z,19.85
2024-05-09T20:30:43.062Z,19.76
2024-05-09T20:33:15.055Z,19.68
2024-05-09T20:35:42.385Z,19.69
2024-05-09T20:38:11.163Z,19.64
2024-05-09T20:40:39.717Z,19.64
2024-05-09T20:43:11.029Z,19.61
2024-05-09T20:45:38.808Z,19.51
2024-05-09T20:48:08.218Z,19.54
2024-05-09T20:50:40.780Z,19.51
2024-05-09T20:53:14.249Z,19.46
2024-05-09T20:55:45.451Z,19.43
2024-05-09T20:58:16.825Z,19.38
2024-05-09T21:00:45.804Z,19.42
2024-05-09T21:03:17.496Z,19.42
2024-05-09T21:05:45.784Z,19.37
2024-05-09T21:08:13.135Z,19.36
2024-05-09T21:10:40.432Z,19.33
2024-05-09T21:13:10.750Z,19.33
2024-05-09T21:15:39.134Z,19.28
2024-05-09T21:18:06.737Z,19.19
2024-05-09T21:20:35.020Z,19.17
2024-05-09T21:23:03.241Z,19.11
2024-05-09T21:25:33.644Z,19.05
2024-05-09T21:28:01.741Z,19.03
2024-05-09T21:30:38.507Z,18.94
2024-05-09T21:33:10.847Z,19.26
2024-05-09T21:35:40.108Z,19.25
2024-05-09T21:38:09.011Z,19.21
2024-05-09T21:40:38.027Z,19.11
2024-05-09T21:43:07.211Z,19.08
2024-05-09T21:45:35.709Z,19.00
2024-05-09T21:48:07.215Z,18.98
2024-05-09T21:50:40.017Z,18.86
2024-05-09T21:53:10.043Z,18.71
2024-05-09T21:55:37.579Z,18.74
2024-05-09T21:58:05.289Z,18.66
2024-05-09T22:00:37.620Z,18.58
2024-05-09T22:03:11.361Z,18.55
2024-05-09T22:05:42.555Z,18.55
2024-05-09T22:08:11.193Z,18.48
2024-05-09T22:10:41.632Z,18.48
2024-05-09T22:13:09.151Z,18.40
2024-05-09T22:15:41.588Z,18.39
2024-05-09T22:18:10.481Z,18.39
2024-05-09T22:20:46.514Z,18.33
2024-05-09T22:23:15.389Z,18.30
2024-05-09T22:25:42.696Z,18.21
2024-05-09T22:28:14.439Z,18.33
2024-05-09T22:30:44.400Z,18.28
2024-05-09T22:33:12.715Z,18.31
2024-05-09T22:35:41.234Z,18.29
2024-05-09T22:38:08.862Z,18.20
2024-05-09T22:40:45.591Z,18.11
2024-05-09T22:43:23.055Z,17.89
2024-05-09T22:45:51.971Z,18.04
2024-05-09T22:48:19.511Z,17.98
2024-05-09T22:50:50.879Z,17.93
2024-05-09T22:53:27.512Z,17.91
2024-05-09T22:55:55.308Z,17.88
2024-05-09T22:58:24.064Z,17.77
2024-05-09T23:00:52.317Z,17.56
2024-05-09T23:03:30.090Z,17.82
2024-05-09T23:05:57.491Z,17.81
2024-05-09T23:08:25.221Z,17.78
2024-05-09T23:10:54.834Z,17.86
2024-05-09T23:13:22.946Z,17.92
2024-05-09T23:15:50.295Z,17.84
2024-05-09T23:18:17.602Z,17.82
2024-05-09T23:20:44.618Z,17.78
2024-05-09T23:23:12.466Z,17.67
2024-05-09T23:25:43.061Z,17.64
2024-05-09T23:28:12.971Z,17.55
2024-05-09T23:30:47.979Z,17.50
2024-05-09T23:33:16.416Z,17.42
2024-05-09T23:35:45.138Z,17.37
2024-05-09T23:38:16.391Z,17.35
2024-05-09T23:40:45.090Z,17.29
2024-05-09T23:43:15.440Z,17.33
2024-05-09T23:45:43.613Z,17.34
2024-05-09T23:48:11.420Z,17.33
2024-05-09T23:50:47.893Z,17.32
2024-05-09T23:53:16.069Z,17.36
2024-05-09T23:55:43.007Z,17.35
2024-05-09T23:58:11.849Z,17.28
